Manhattan, KS

03:17 AM CST del 27 novembre 2014 (GMT -0600)
Manhattan Regional | Change Station
CLOSE
Current Station
Aeroporto
Location: Manhattan,
Altitudine: 1056 ft
Stazioni meteo nelle vicinanze

Alt. 1056 ft 39.14 °N, 96.68 °W | Updated 25 minutes ago

Parzialmente nuvoloso
Parzialmente nuvoloso
16 °F
Sembra 16 °F
N
0
Vento Variabile Vento da Nord

Oggi
Massima -- | Minima -- °F
--% Possibilità di precip.
Ieri
Massima -- | Minima -- °F
Precip. -- in
7:22 AM 5:05 PM
Luna crescente, 27% visible
Pressione 30.53 in
Visibilità 10.0 miglia
Nuvole Sereno
Punto di rugiada 14 °F
Umidità 92%
Piovosità 0.00 in
Spessore del manto nevoso Non disponibile.
Raggi UV 0 fuori da 12
Polline .10 fuori da 12
Qualità dell'aria Non disponibile.
Flu Activity Non disponibile.
METAR KMHK 270852Z AUTO 00000KT 10SM CLR M09/M10 A3049 RMK AO2 SLP339 T10891100 50004 TSNO

More Conditions Fewer Conditions

Pressione 30.53 in
Visibilità 10.0 miglia
Nuvole Sereno
Punto di rugiada 14 °F
Umidità 92%
Piovosità 0.00 in
Spessore del manto nevoso Non disponibile.
Raggi UV 0 fuori da 12
Polline .10 fuori da 12
Qualità dell'aria Non disponibile.
Flu Activity Non disponibile.
METAR KMHK 270852Z AUTO 00000KT 10SM CLR M09/M10 A3049 RMK AO2 SLP339 T10891100 50004 TSNO

More Conditions Fewer Conditions

10-Day Weather Forecast

Almanac

Astronomia

Nov. 27, 2014 Alba Tramonto
Ora attuale
Crepuscolo civile
Crepuscolo nautico
Crepuscolo astronomico
Luna
Estensione della luce visibile
Lunghezza del giorno
Tomorrow will be .
, % of the Moon is Illuminated

Gli estremi di oggi

State Highs State Lows

Community

WunderPhotos

Upload Photos

1,773,965 foto caricate!

WunderBlogs® & News

Nearby

Qualità dell'aria

  Qualità dell'aria Indice AQ Inquinante
Not available.

Profondità neve

Stazione Profondità Altitudine

Attività sismica

Città  Distanza Mag. Data & Ora
Minimo Magnitudo Mostrato è 2.5.

Temperature delle acque costiere

Località Temperatura

Stazioni meteo nelle vicinanze